createdAt,value
2019-05-20T07:19:50.245Z,1003.89
2019-05-20T07:20:50.238Z,1003.92
2019-05-20T07:22:55.239Z,1003.88
2019-05-20T07:23:43.333Z,1003.82
2019-05-20T07:24:43.372Z,1003.77
2019-05-20T07:29:08.460Z,1003.85
2019-05-20T07:30:08.464Z,1003.90
2019-05-20T07:31:08.495Z,1003.95
2019-05-20T07:32:08.509Z,1003.91
2019-05-20T07:33:08.596Z,1003.90
2019-05-20T07:34:08.560Z,1003.92
2019-05-20T07:35:08.584Z,1003.89
2019-05-20T07:36:10.116Z,1003.89
2019-05-20T07:37:08.632Z,1003.90
2019-05-20T07:38:08.657Z,1003.81
2019-05-20T07:39:08.681Z,1003.79
2019-05-20T07:40:08.705Z,1003.75
2019-05-20T07:41:08.755Z,1003.76
2019-05-20T07:42:08.760Z,1003.80
2019-05-20T07:43:08.782Z,1003.83
2019-05-20T07:44:08.807Z,1003.86
2019-05-20T07:45:08.834Z,1003.90
2019-05-20T07:46:08.868Z,1003.92
2019-05-20T07:47:10.902Z,1003.96
2019-05-20T07:48:08.952Z,1003.98
2019-05-20T07:49:08.949Z,1004.05
2019-05-20T07:50:08.969Z,1004.03
2019-05-20T07:51:08.993Z,1004.00
2019-05-20T07:52:09.128Z,1003.98
2019-05-20T07:53:09.046Z,1003.96
2019-05-20T07:54:09.110Z,1003.91
2019-05-20T07:55:09.097Z,1003.92
2019-05-20T07:56:09.174Z,1003.93
2019-05-20T07:57:09.149Z,1003.90
2019-05-20T07:58:09.187Z,1003.92
2019-05-20T07:59:09.199Z,1003.94
2019-05-20T08:00:09.234Z,1003.87
2019-05-20T08:01:09.257Z,1003.85
2019-05-20T08:02:09.286Z,1003.84
2019-05-20T08:03:09.307Z,1003.87
2019-05-20T08:04:09.408Z,1003.85
2019-05-20T08:05:09.447Z,1003.84
2019-05-20T08:06:09.387Z,1003.86
2019-05-20T08:07:26.809Z,1003.82
2019-05-20T08:08:09.443Z,1003.79
2019-05-20T08:09:09.473Z,1003.70
2019-05-20T08:10:09.565Z,1003.68
2019-05-20T08:11:09.524Z,1003.61
2019-05-20T08:12:09.563Z,1003.63
2019-05-20T08:13:09.630Z,1003.64
2019-05-20T08:14:09.605Z,1003.64
2019-05-20T08:15:09.697Z,1003.65
2019-05-20T08:16:09.713Z,1003.62
2019-05-20T08:17:09.700Z,1003.65
2019-05-20T08:18:09.729Z,1003.65
2019-05-20T08:19:09.782Z,1003.66
2019-05-20T08:20:09.768Z,1003.65
2019-05-20T08:21:09.794Z,1003.61
2019-05-20T08:22:09.831Z,1003.65
2019-05-20T08:23:09.885Z,1003.62
2019-05-20T08:24:09.889Z,1003.61
2019-05-20T08:25:09.906Z,1003.62
2019-05-20T08:26:09.934Z,1003.66
2019-05-20T08:27:09.961Z,1003.67
2019-05-20T08:28:09.997Z,1003.66
2019-05-20T08:29:10.014Z,1003.70
2019-05-20T08:30:13.879Z,1003.72
2019-05-20T08:31:10.069Z,1003.70
2019-05-20T08:32:10.099Z,1003.71
2019-05-20T08:33:10.124Z,1003.71
2019-05-20T08:34:10.154Z,1003.72
2019-05-20T08:35:10.179Z,1003.68
2019-05-20T08:36:10.223Z,1003.72
2019-05-20T08:37:10.235Z,1003.72
2019-05-20T08:38:10.262Z,1003.73
2019-05-20T08:39:10.289Z,1003.77
2019-05-20T08:40:10.319Z,1003.75
2019-05-20T08:41:10.345Z,1003.76
2019-05-20T08:42:10.374Z,1003.78
2019-05-20T08:43:10.455Z,1003.83
2019-05-20T08:44:10.427Z,1003.82
2019-05-20T08:45:10.455Z,1003.84
2019-05-20T08:46:10.483Z,1003.84
2019-05-20T08:47:10.532Z,1003.86
2019-05-20T08:48:10.537Z,1003.85
2019-05-20T08:49:11.659Z,1003.85
2019-05-20T08:50:15.634Z,1003.89
2019-05-20T08:51:10.625Z,1003.87
2019-05-20T08:52:10.649Z,1003.82
2019-05-20T08:53:10.710Z,1003.84
2019-05-20T08:54:10.706Z,1003.84
2019-05-20T08:55:10.735Z,1003.81
2019-05-20T08:56:10.759Z,1003.84
2019-05-20T08:57:10.788Z,1003.81
2019-05-20T08:58:10.821Z,1003.83
2019-05-20T08:59:10.872Z,1003.81
2019-05-20T09:00:10.872Z,1003.87
2019-05-20T09:01:12.224Z,1003.86
2019-05-20T09:02:10.982Z,1003.89
2019-05-20T09:03:10.952Z,1003.87
2019-05-20T09:04:11.044Z,1003.84
2019-05-20T09:05:11.009Z,1003.86
2019-05-20T09:06:11.063Z,1003.86
2019-05-20T09:07:11.073Z,1003.90
2019-05-20T09:08:11.093Z,1003.83
2019-05-20T09:09:12.328Z,1003.88
2019-05-20T09:10:11.148Z,1003.88
2019-05-20T09:11:11.184Z,1003.87
2019-05-20T09:12:11.238Z,1003.84
2019-05-20T09:13:11.239Z,1003.86
2019-05-20T09:14:11.314Z,1003.84
2019-05-20T09:15:11.291Z,1003.80
2019-05-20T09:16:11.395Z,1003.78
2019-05-20T09:17:11.400Z,1003.77
2019-05-20T09:18:11.374Z,1003.76
2019-05-20T09:19:11.417Z,1003.80
2019-05-20T09:20:11.476Z,1003.77
2019-05-20T09:21:11.650Z,1003.77
2019-05-20T09:22:11.491Z,1003.75
2019-05-20T09:23:11.588Z,1003.70
2019-05-20T09:24:11.546Z,1003.71
2019-05-20T09:25:11.641Z,1003.70
2019-05-20T09:26:11.594Z,1003.69
2019-05-20T09:27:11.622Z,1003.66
2019-05-20T09:28:11.648Z,1003.67
2019-05-20T09:29:11.767Z,1003.63
2019-05-20T09:30:11.706Z,1003.61
2019-05-20T09:31:11.900Z,1003.58
2019-05-20T09:32:11.761Z,1003.58
2019-05-20T09:33:11.842Z,1003.59
2019-05-20T09:34:11.877Z,1003.59
2019-05-20T09:35:11.844Z,1003.54
2019-05-20T09:36:11.872Z,1003.54
2019-05-20T09:37:11.900Z,1003.53
2019-05-20T09:38:20.194Z,1003.56
2019-05-20T09:39:11.964Z,1003.47
2019-05-20T09:40:11.991Z,1003.49
2019-05-20T09:41:12.011Z,1003.50
2019-05-20T09:42:12.040Z,1003.49
2019-05-20T09:43:12.085Z,1003.44
2019-05-20T09:44:12.099Z,1003.44
2019-05-20T09:45:12.128Z,1003.47
2019-05-20T09:46:12.154Z,1003.41
2019-05-20T09:47:12.180Z,1003.44
2019-05-20T09:48:12.207Z,1003.46
2019-05-20T09:49:12.234Z,1003.46
2019-05-20T09:50:12.263Z,1003.45
2019-05-20T09:51:12.293Z,1003.41
2019-05-20T09:52:12.353Z,1003.42
2019-05-20T09:53:12.354Z,1003.36
2019-05-20T09:54:12.385Z,1003.36
2019-05-20T09:55:12.403Z,1003.36
2019-05-20T09:56:12.431Z,1003.36
2019-05-20T09:57:12.458Z,1003.40
2019-05-20T09:58:12.488Z,1003.36
2019-05-20T09:59:16.238Z,1003.34
2019-05-20T10:00:12.542Z,1003.36
2019-05-20T10:01:12.572Z,1003.30
2019-05-20T10:02:12.600Z,1003.33
2019-05-20T10:03:12.626Z,1003.36
2019-05-20T10:04:12.658Z,1003.30
2019-05-20T10:05:12.683Z,1003.28
2019-05-20T10:06:12.712Z,1003.27
2019-05-20T10:07:12.739Z,1003.28
2019-05-20T10:08:12.767Z,1003.29
2019-05-20T10:09:12.851Z,1003.31
2019-05-20T10:10:12.826Z,1003.27
2019-05-20T10:11:12.850Z,1003.27
2019-05-20T10:12:12.887Z,1003.28
2019-05-20T10:13:12.948Z,1003.23
2019-05-20T10:14:12.935Z,1003.24
2019-05-20T10:15:12.962Z,1003.22
2019-05-20T10:16:12.993Z,1003.24
2019-05-20T10:17:13.041Z,1003.25
2019-05-20T10:18:13.060Z,1003.21
2019-05-20T10:19:13.073Z,1003.24
2019-05-20T10:20:13.103Z,1003.20
2019-05-20T10:21:13.131Z,1003.23
2019-05-20T10:22:13.171Z,1003.22
2019-05-20T10:23:15.766Z,1003.22
2019-05-20T10:24:13.291Z,1003.20
2019-05-20T10:25:13.245Z,1003.20
2019-05-20T10:26:13.337Z,1003.20
2019-05-20T10:27:13.297Z,1003.22
2019-05-20T10:28:13.329Z,1003.20
2019-05-20T10:29:13.356Z,1003.18
2019-05-20T10:30:13.381Z,1003.15
2019-05-20T10:31:13.478Z,1003.12
2019-05-20T10:32:13.461Z,1003.12
2019-05-20T10:33:13.468Z,1003.17
2019-05-20T10:34:13.496Z,1003.13
2019-05-20T10:35:13.520Z,1003.19
2019-05-20T10:36:13.595Z,1003.17
2019-05-20T10:37:13.576Z,1003.15
2019-05-20T10:38:13.615Z,1003.17
2019-05-20T10:39:13.634Z,1003.17
2019-05-20T10:40:13.666Z,1003.16
2019-05-20T10:41:13.691Z,1003.15
2019-05-20T10:42:13.717Z,1003.18
2019-05-20T10:43:13.750Z,1003.16
2019-05-20T10:44:13.774Z,1003.18
2019-05-20T10:45:13.801Z,1003.17
2019-05-20T10:46:13.879Z,1003.16
2019-05-20T10:47:13.860Z,1003.11
2019-05-20T10:48:13.888Z,1003.13
2019-05-20T10:49:13.917Z,1003.12
2019-05-20T10:50:13.974Z,1003.10
2019-05-20T10:51:13.972Z,1003.10
2019-05-20T10:52:14.007Z,1003.10
2019-05-20T10:53:14.030Z,1003.08
2019-05-20T10:54:14.062Z,1003.07
2019-05-20T10:55:14.082Z,1003.03
2019-05-20T10:56:14.374Z,1003.01
2019-05-20T10:57:14.134Z,1002.97
2019-05-20T10:58:14.199Z,1002.97
2019-05-20T10:59:14.193Z,1002.98
2019-05-20T11:00:14.224Z,1002.97
2019-05-20T11:01:14.252Z,1002.90
2019-05-20T11:02:14.303Z,1002.93
2019-05-20T11:03:14.303Z,1002.92
2019-05-20T11:04:14.330Z,1002.91
2019-05-20T11:05:14.400Z,1002.89
2019-05-20T11:06:14.391Z,1002.87
2019-05-20T11:07:14.415Z,1002.88
2019-05-20T11:08:14.441Z,1002.86
2019-05-20T11:09:14.655Z,1002.88
2019-05-20T11:10:14.498Z,1002.86
2019-05-20T11:11:14.869Z,1002.88
2019-05-20T11:12:14.554Z,1002.87
2019-05-20T11:13:14.580Z,1002.86
2019-05-20T11:14:14.609Z,1002.82
2019-05-20T11:15:14.692Z,1002.83
2019-05-20T11:16:14.665Z,1002.82
2019-05-20T11:17:15.257Z,1002.78
2019-05-20T11:18:14.726Z,1002.79
2019-05-20T11:19:14.747Z,1002.80
2019-05-20T11:20:14.788Z,1002.78
2019-05-20T11:21:14.805Z,1002.77
2019-05-20T11:22:14.832Z,1002.77
2019-05-20T11:23:14.857Z,1002.75
2019-05-20T11:24:14.887Z,1002.74
2019-05-20T11:25:14.916Z,1002.72
2019-05-20T11:26:14.957Z,1002.72
2019-05-20T11:27:14.976Z,1002.74
2019-05-20T11:28:15.003Z,1002.76
2019-05-20T11:29:15.045Z,1002.72
2019-05-20T11:30:15.060Z,1002.73
2019-05-20T11:31:15.080Z,1002.76
2019-05-20T11:32:15.110Z,1002.74
2019-05-20T11:33:15.140Z,1002.71
2019-05-20T11:34:15.165Z,1002.70
2019-05-20T11:35:15.191Z,1002.70
2019-05-20T11:36:15.220Z,1002.70
2019-05-20T11:37:15.248Z,1002.70
2019-05-20T11:38:15.282Z,1002.70
2019-05-20T11:39:31.289Z,1002.68
2019-05-20T11:40:15.637Z,1002.71
2019-05-20T11:41:15.358Z,1002.68
2019-05-20T11:42:15.438Z,1002.68
2019-05-20T11:43:15.413Z,1002.69
2019-05-20T11:44:15.443Z,1002.69
2019-05-20T11:45:15.470Z,1002.68
2019-05-20T11:46:15.546Z,1002.65
2019-05-20T11:47:15.524Z,1002.66
2019-05-20T11:48:15.556Z,1002.66
2019-05-20T11:49:15.654Z,1002.67
2019-05-20T11:50:15.608Z,1002.66
2019-05-20T11:51:15.637Z,1002.67
2019-05-20T11:52:15.667Z,1002.66
2019-05-20T11:53:15.694Z,1002.66
2019-05-20T11:54:15.721Z,1002.67
2019-05-20T11:55:15.747Z,1002.65
2019-05-20T11:56:15.842Z,1002.64
2019-05-20T11:57:15.802Z,1002.60
2019-05-20T11:58:16.591Z,1002.64
2019-05-20T11:59:15.873Z,1002.63
2019-05-20T12:00:15.887Z,1002.65
2019-05-20T12:01:15.914Z,1002.60
2019-05-20T12:02:15.995Z,1002.60
2019-05-20T12:03:15.968Z,1002.56
2019-05-20T12:04:16.006Z,1002.59
2019-05-20T12:05:16.031Z,1002.58
2019-05-20T12:06:16.052Z,1002.53
2019-05-20T12:07:16.083Z,1002.51
2019-05-20T12:08:16.107Z,1002.53
2019-05-20T12:09:16.135Z,1002.52
2019-05-20T12:10:16.164Z,1002.51
2019-05-20T12:11:16.212Z,1002.51
2019-05-20T12:12:16.288Z,1002.48
2019-05-20T12:13:16.254Z,1002.49
2019-05-20T12:14:16.274Z,1002.46
2019-05-20T12:15:16.302Z,1002.47
2019-05-20T12:16:16.329Z,1002.44
2019-05-20T12:17:16.356Z,1002.44
2019-05-20T12:18:16.384Z,1002.43
2019-05-20T12:19:16.411Z,1002.46
2019-05-20T12:20:16.440Z,1002.47
2019-05-20T12:21:16.465Z,1002.48
2019-05-20T12:22:16.497Z,1002.43
2019-05-20T12:23:16.523Z,1002.45
2019-05-20T12:24:16.551Z,1002.44
2019-05-20T12:25:16.579Z,1002.42
2019-05-20T12:26:16.606Z,1002.44
2019-05-20T12:27:16.632Z,1002.41
2019-05-20T12:28:16.664Z,1002.38
2019-05-20T12:29:16.695Z,1002.39
2019-05-20T12:30:16.725Z,1002.38
2019-05-20T12:31:16.742Z,1002.39
2019-05-20T12:32:16.772Z,1002.37
2019-05-20T12:33:18.897Z,1002.38
2019-05-20T12:34:16.830Z,1002.36
2019-05-20T12:35:16.853Z,1002.36
2019-05-20T12:36:16.886Z,1002.33
2019-05-20T12:37:16.911Z,1002.33
2019-05-20T12:38:16.939Z,1002.34
2019-05-20T12:39:16.973Z,1002.29
2019-05-20T12:40:16.994Z,1002.26
2019-05-20T12:41:17.080Z,1002.29
2019-05-20T12:42:17.048Z,1002.30
2019-05-20T12:43:17.081Z,1002.27
2019-05-20T12:44:17.108Z,1002.27
2019-05-20T12:45:17.162Z,1002.26
2019-05-20T12:46:17.159Z,1002.26
2019-05-20T12:47:17.185Z,1002.22
2019-05-20T12:48:17.214Z,1002.23
2019-05-20T12:49:17.364Z,1002.23
2019-05-20T12:50:17.276Z,1002.23
2019-05-20T12:51:17.337Z,1002.22
2019-05-20T12:52:17.389Z,1002.20
2019-05-20T12:53:17.361Z,1002.22
2019-05-20T12:54:17.420Z,1002.19
2019-05-20T12:55:17.439Z,1002.19
2019-05-20T12:56:19.671Z,1002.19
2019-05-20T12:57:17.509Z,1002.17
2019-05-20T12:58:17.493Z,1002.17
2019-05-20T12:59:17.520Z,1002.13
2019-05-20T13:00:17.573Z,1002.15
2019-05-20T13:01:17.575Z,1002.12
2019-05-20T13:02:17.764Z,1002.12
2019-05-20T13:03:17.659Z,1002.12
2019-05-20T13:04:17.660Z,1002.10
2019-05-20T13:05:17.689Z,1002.13
2019-05-20T13:06:17.745Z,1002.13
2019-05-20T13:07:17.745Z,1002.06
2019-05-20T13:08:17.770Z,1002.07
2019-05-20T13:09:17.799Z,1002.10
2019-05-20T13:10:28.848Z,1002.08
2019-05-20T13:11:17.880Z,1002.08
2019-05-20T13:12:17.881Z,1002.04
2019-05-20T13:13:17.936Z,1002.08
2019-05-20T13:14:17.938Z,1002.06
2019-05-20T13:15:18.038Z,1001.99
2019-05-20T13:16:18.039Z,1001.99
2019-05-20T13:17:18.019Z,1001.95
2019-05-20T13:18:18.047Z,1001.96
2019-05-20T13:19:18.074Z,1001.95
2019-05-20T13:20:18.108Z,1001.94
2019-05-20T13:21:18.129Z,1001.97
2019-05-20T13:22:18.162Z,1001.94
2019-05-20T13:23:18.185Z,1001.89
2019-05-20T13:24:18.302Z,1001.92
2019-05-20T13:25:18.241Z,1001.89
2019-05-20T13:26:18.341Z,1001.91
2019-05-20T13:27:18.297Z,1001.88
2019-05-20T13:28:18.325Z,1001.90
2019-05-20T13:29:18.351Z,1001.87
2019-05-20T13:30:18.380Z,1001.86
2019-05-20T13:31:18.406Z,1001.81
2019-05-20T13:32:18.436Z,1001.80
2019-05-20T13:33:18.463Z,1001.78
2019-05-20T13:34:18.838Z,1001.77
2019-05-20T13:35:18.525Z,1001.78
2019-05-20T13:36:18.545Z,1001.79
2019-05-20T13:37:18.581Z,1001.76
2019-05-20T13:38:18.601Z,1001.79
2019-05-20T13:39:18.648Z,1001.78
2019-05-20T13:40:18.658Z,1001.78
2019-05-20T13:41:18.685Z,1001.77
2019-05-20T13:42:18.717Z,1001.78
2019-05-20T13:43:18.740Z,1001.73
2019-05-20T13:44:18.769Z,1001.72
2019-05-20T13:45:18.895Z,1001.77
2019-05-20T13:46:18.823Z,1001.75
2019-05-20T13:47:18.905Z,1001.73
2019-05-20T13:48:18.881Z,1001.77
2019-05-20T13:49:18.907Z,1001.76
2019-05-20T13:50:18.938Z,1001.77
2019-05-20T13:51:18.962Z,1001.75
2019-05-20T13:52:18.990Z,1001.72
2019-05-20T13:53:19.019Z,1001.72
2019-05-20T13:54:19.046Z,1001.75
2019-05-20T13:55:19.072Z,1001.71
2019-05-20T13:56:19.108Z,1001.73
2019-05-20T13:57:19.133Z,1001.73
2019-05-20T13:58:19.192Z,1001.74
2019-05-20T13:59:19.183Z,1001.74
2019-05-20T14:00:19.211Z,1001.74
2019-05-20T14:01:19.290Z,1001.75
2019-05-20T14:02:19.269Z,1001.72
2019-05-20T14:03:19.296Z,1001.73
2019-05-20T14:04:19.323Z,1001.67
2019-05-20T14:05:19.351Z,1001.70
2019-05-20T14:06:19.377Z,1001.67
2019-05-20T14:07:19.405Z,1001.69
2019-05-20T14:08:19.432Z,1001.67
2019-05-20T14:09:19.465Z,1001.67
2019-05-20T14:10:19.491Z,1001.66
2019-05-20T14:11:33.801Z,1001.68
2019-05-20T14:12:19.544Z,1001.66
2019-05-20T14:13:19.574Z,1001.64
2019-05-20T14:14:19.601Z,1001.62
2019-05-20T14:15:19.626Z,1001.63
2019-05-20T14:16:19.705Z,1001.62
2019-05-20T14:17:19.683Z,1001.61
2019-05-20T14:18:19.711Z,1001.63
2019-05-20T14:19:22.525Z,1001.63
2019-05-20T14:20:19.768Z,1001.62
2019-05-20T14:21:19.798Z,1001.59
2019-05-20T14:22:19.823Z,1001.64
2019-05-20T14:23:19.852Z,1001.62
2019-05-20T14:24:19.877Z,1001.65
2019-05-20T14:25:19.904Z,1001.65
2019-05-20T14:26:19.951Z,1001.65
2019-05-20T14:27:19.966Z,1001.64
2019-05-20T14:28:19.991Z,1001.61
2019-05-20T14:29:20.019Z,1001.62
2019-05-20T14:30:20.045Z,1001.65
2019-05-20T14:31:20.073Z,1001.65
2019-05-20T14:32:20.101Z,1001.66
2019-05-20T14:33:20.134Z,1001.61
2019-05-20T14:34:20.155Z,1001.60
2019-05-20T14:35:20.189Z,1001.62
2019-05-20T14:36:38.624Z,1001.55
2019-05-20T14:37:20.240Z,1001.63
2019-05-20T14:38:20.268Z,1001.61
2019-05-20T14:39:20.297Z,1001.54
2019-05-20T14:40:20.324Z,1001.53
2019-05-20T14:41:22.088Z,1001.52
2019-05-20T14:42:20.380Z,1001.48
2019-05-20T14:43:20.406Z,1001.51
2019-05-20T14:44:20.435Z,1001.48
2019-05-20T14:45:20.465Z,1001.45
2019-05-20T14:46:20.488Z,1001.44
2019-05-20T14:47:20.589Z,1001.41
2019-05-20T14:48:20.544Z,1001.39
2019-05-20T14:49:20.573Z,1001.43
2019-05-20T14:50:20.658Z,1001.39
2019-05-20T14:51:20.643Z,1001.40
2019-05-20T14:52:20.657Z,1001.40
2019-05-20T14:53:20.728Z,1001.39
2019-05-20T14:54:20.714Z,1001.39
2019-05-20T14:55:20.780Z,1001.41
2019-05-20T14:56:20.768Z,1001.41
2019-05-20T14:57:20.871Z,1001.36
2019-05-20T14:58:20.908Z,1001.36
2019-05-20T14:59:20.848Z,1001.36
2019-05-20T15:00:20.949Z,1001.33
2019-05-20T15:01:20.905Z,1001.35
2019-05-20T15:02:20.935Z,1001.33
2019-05-20T15:03:21.036Z,1001.33
2019-05-20T15:04:20.999Z,1001.32
2019-05-20T15:05:21.016Z,1001.30
2019-05-20T15:06:21.044Z,1001.33
2019-05-20T15:07:30.185Z,1001.28
2019-05-20T15:08:21.184Z,1001.30
2019-05-20T15:09:21.130Z,1001.28
2019-05-20T15:10:21.156Z,1001.28
2019-05-20T15:11:36.803Z,1001.24
2019-05-20T15:12:21.210Z,1001.24
2019-05-20T15:13:21.240Z,1001.23
2019-05-20T15:14:21.271Z,1001.19
2019-05-20T15:15:21.296Z,1001.17
2019-05-20T15:16:21.670Z,1001.18
2019-05-20T15:17:21.362Z,1001.20
2019-05-20T15:18:21.377Z,1001.18
2019-05-20T15:19:21.405Z,1001.19
2019-05-20T15:20:21.500Z,1001.19
2019-05-20T15:21:21.556Z,1001.19
2019-05-20T15:22:21.493Z,1001.20
2019-05-20T15:23:21.515Z,1001.12
2019-05-20T15:24:21.546Z,1001.16
2019-05-20T15:25:21.573Z,1001.14
2019-05-20T15:26:21.602Z,1001.13
2019-05-20T15:27:21.627Z,1001.13
2019-05-20T15:28:21.655Z,1001.11
2019-05-20T15:29:27.944Z,1001.15
2019-05-20T15:30:21.757Z,1001.10
2019-05-20T15:31:21.739Z,1001.08
2019-05-20T15:32:21.768Z,1001.12
2019-05-20T15:33:21.801Z,1001.12
2019-05-20T15:34:21.869Z,1001.12
2019-05-20T15:35:21.849Z,1001.10
2019-05-20T15:36:21.877Z,1001.10
2019-05-20T15:37:21.919Z,1001.09
2019-05-20T15:38:21.935Z,1001.08
2019-05-20T15:39:21.971Z,1001.06
2019-05-20T15:40:24.437Z,1001.04
2019-05-20T15:41:22.019Z,1001.06
2019-05-20T15:42:22.045Z,1001.07
2019-05-20T15:43:22.070Z,1001.05
2019-05-20T15:44:22.100Z,1001.05
2019-05-20T15:45:22.130Z,1001.05
2019-05-20T15:46:22.157Z,1001.06
2019-05-20T15:47:22.184Z,1001.04
2019-05-20T15:48:22.211Z,1001.02
2019-05-20T15:49:22.295Z,1001.05
2019-05-20T15:50:22.267Z,1001.02
2019-05-20T15:51:22.340Z,1001.01
2019-05-20T15:52:22.321Z,1001.01
2019-05-20T15:53:22.349Z,1001.01
2019-05-20T15:54:22.517Z,1001.01
2019-05-20T15:55:22.407Z,1000.98
2019-05-20T15:56:22.431Z,1000.99
2019-05-20T15:57:22.461Z,1000.96
2019-05-20T15:58:23.854Z,1001.00
2019-05-20T15:59:22.517Z,1000.98
2019-05-20T16:00:22.545Z,1000.95
2019-05-20T16:01:22.613Z,1000.94
2019-05-20T16:02:22.600Z,1000.95
2019-05-20T16:03:22.625Z,1000.94
2019-05-20T16:04:22.655Z,1000.95
2019-05-20T16:05:22.682Z,1000.97
2019-05-20T16:06:22.711Z,1000.94
2019-05-20T16:07:22.738Z,1000.94
2019-05-20T16:08:22.764Z,1000.91
2019-05-20T16:09:22.793Z,1000.90
2019-05-20T16:10:22.828Z,1000.93
2019-05-20T16:11:22.897Z,1000.94
2019-05-20T16:12:22.880Z,1000.91
2019-05-20T16:13:22.904Z,1000.93
2019-05-20T16:14:22.934Z,1000.94
2019-05-20T16:15:22.959Z,1000.92
2019-05-20T16:16:23.055Z,1000.92
2019-05-20T16:17:23.083Z,1000.93
2019-05-20T16:18:23.044Z,1000.92
2019-05-20T16:19:23.073Z,1000.93
2019-05-20T16:20:23.100Z,1000.95
2019-05-20T16:21:23.127Z,1000.91
2019-05-20T16:22:23.155Z,1000.91
2019-05-20T16:23:23.182Z,1000.93
2019-05-20T16:24:23.210Z,1000.89
2019-05-20T16:25:23.294Z,1000.92
2019-05-20T16:26:23.270Z,1000.88
2019-05-20T16:27:23.293Z,1000.88
2019-05-20T16:28:23.327Z,1000.93
2019-05-20T16:29:23.350Z,1000.86
2019-05-20T16:30:23.382Z,1000.89
2019-05-20T16:31:23.402Z,1000.88
2019-05-20T16:32:23.433Z,1000.90
2019-05-20T16:33:23.509Z,1000.87
2019-05-20T16:34:23.491Z,1000.87
2019-05-20T16:35:23.517Z,1000.86
2019-05-20T16:36:23.562Z,1000.86
2019-05-20T16:37:23.572Z,1000.87
2019-05-20T16:38:23.600Z,1000.86
2019-05-20T16:39:23.625Z,1000.84
2019-05-20T16:40:23.655Z,1000.83
2019-05-20T16:41:23.681Z,1000.81
2019-05-20T16:42:23.719Z,1000.86
2019-05-20T16:43:23.735Z,1000.81
2019-05-20T16:44:23.765Z,1000.80
2019-05-20T16:45:23.797Z,1000.81
2019-05-20T16:46:23.822Z,1000.79
2019-05-20T16:47:23.849Z,1000.79
2019-05-20T16:48:23.876Z,1000.78
2019-05-20T16:49:23.903Z,1000.78
2019-05-20T16:50:24.003Z,1000.79
2019-05-20T16:51:23.958Z,1000.79
2019-05-20T16:52:23.988Z,1000.75
2019-05-20T16:53:24.016Z,1000.79
2019-05-20T16:54:24.067Z,1000.80
2019-05-20T16:55:24.071Z,1000.76
2019-05-20T16:56:24.098Z,1000.74
2019-05-20T16:57:24.151Z,1000.73
2019-05-20T16:58:24.233Z,1000.73
2019-05-20T16:59:24.181Z,1000.74
2019-05-20T17:00:31.409Z,1000.71
2019-05-20T17:01:24.236Z,1000.71
2019-05-20T17:02:24.266Z,1000.71
2019-05-20T17:03:24.317Z,1000.70
2019-05-20T17:04:24.325Z,1000.71
2019-05-20T17:05:24.347Z,1000.67
2019-05-20T17:06:27.480Z,1000.68
2019-05-20T17:07:24.401Z,1000.66
2019-05-20T17:08:24.434Z,1000.66
2019-05-20T17:09:24.460Z,1000.66
2019-05-20T17:10:24.487Z,1000.62
2019-05-20T17:11:24.513Z,1000.65
2019-05-20T17:12:24.541Z,1000.65
2019-05-20T17:13:24.569Z,1000.65
2019-05-20T17:14:24.598Z,1000.67
2019-05-20T17:15:24.628Z,1000.64
2019-05-20T17:16:24.651Z,1000.66
2019-05-20T17:17:24.682Z,1000.66
2019-05-20T17:18:24.708Z,1000.63
2019-05-20T17:19:24.789Z,1000.64
2019-05-20T17:20:24.763Z,1000.66
2019-05-20T17:21:24.850Z,1000.61
2019-05-20T17:22:24.818Z,1000.60
2019-05-20T17:23:24.845Z,1000.63
2019-05-20T17:24:24.874Z,1000.61
2019-05-20T17:25:24.910Z,1000.63
2019-05-20T17:26:24.930Z,1000.57
2019-05-20T17:27:24.959Z,1000.59
2019-05-20T17:28:25.008Z,1000.58
2019-05-20T17:29:25.092Z,1000.61
2019-05-20T17:30:25.042Z,1000.58
2019-05-20T17:31:26.709Z,1000.56
2019-05-20T17:32:25.096Z,1000.56
2019-05-20T17:33:25.133Z,1000.54
2019-05-20T17:34:25.189Z,1000.58
2019-05-20T17:35:25.178Z,1000.55
2019-05-20T17:36:25.214Z,1000.60
2019-05-20T17:37:25.242Z,1000.56
2019-05-20T17:38:25.261Z,1000.57
2019-05-20T17:39:25.328Z,1000.56
2019-05-20T17:40:25.321Z,1000.60
2019-05-20T17:41:25.360Z,1000.54
2019-05-20T17:42:25.373Z,1000.59
2019-05-20T17:43:25.401Z,1000.57
2019-05-20T17:44:25.431Z,1000.58
2019-05-20T17:45:25.460Z,1000.58
2019-05-20T17:46:25.537Z,1000.58
2019-05-20T17:47:25.512Z,1000.55
2019-05-20T17:48:25.550Z,1000.54
2019-05-20T17:49:25.578Z,1000.55
2019-05-20T17:50:25.594Z,1000.58
2019-05-20T17:51:25.622Z,1000.59
2019-05-20T17:52:25.653Z,1000.58
2019-05-20T17:53:25.678Z,1000.54
2019-05-20T17:54:25.706Z,1000.58
2019-05-20T17:55:25.907Z,1000.55
2019-05-20T17:56:25.777Z,1000.58
2019-05-20T17:57:25.814Z,1000.56
2019-05-20T17:58:25.818Z,1000.54
2019-05-20T17:59:25.844Z,1000.57
2019-05-20T18:00:25.872Z,1000.60
2019-05-20T18:01:25.907Z,1000.53
2019-05-20T18:02:25.926Z,1000.54
2019-05-20T18:03:25.954Z,1000.54
2019-05-20T18:04:25.983Z,1000.57
2019-05-20T18:05:26.014Z,1000.57
2019-05-20T18:06:26.040Z,1000.56
2019-05-20T18:07:26.067Z,1000.58
2019-05-20T18:08:26.151Z,1000.57
2019-05-20T18:09:26.120Z,1000.53
2019-05-20T18:10:26.147Z,1000.55
2019-05-20T18:11:26.177Z,1000.57
2019-05-20T18:12:26.204Z,1000.56
2019-05-20T18:13:26.234Z,1000.55
2019-05-20T18:14:26.260Z,1000.62
2019-05-20T18:15:26.288Z,1000.58
2019-05-20T18:16:26.312Z,1000.61
2019-05-20T18:17:26.342Z,1000.58
2019-05-20T18:18:26.371Z,1000.58
2019-05-20T18:19:26.398Z,1000.60
2019-05-20T18:20:26.473Z,1000.59
2019-05-20T18:21:26.453Z,1000.60
2019-05-20T18:22:26.482Z,1000.60
2019-05-20T18:23:26.572Z,1000.57
2019-05-20T18:24:26.535Z,1000.61
2019-05-20T18:25:26.563Z,1000.62
2019-05-20T18:26:26.591Z,1000.61
2019-05-20T18:27:26.619Z,1000.57
2019-05-20T18:28:26.646Z,1000.59
2019-05-20T18:29:26.718Z,1000.56
2019-05-20T18:30:26.710Z,1000.56
2019-05-20T18:31:32.294Z,1000.54
2019-05-20T18:32:26.758Z,1000.55
2019-05-20T18:33:26.784Z,1000.56
2019-05-20T18:34:26.813Z,1000.53
2019-05-20T18:35:26.839Z,1000.54
2019-05-20T18:36:26.867Z,1000.53
2019-05-20T18:37:26.899Z,1000.54
2019-05-20T18:38:26.930Z,1000.54
2019-05-20T18:39:26.951Z,1000.53
2019-05-20T18:40:26.980Z,1000.53
2019-05-20T18:41:27.005Z,1000.53
2019-05-20T18:42:27.033Z,1000.53
2019-05-20T18:43:27.061Z,1000.53
2019-05-20T18:44:27.155Z,1000.57
2019-05-20T18:45:27.120Z,1000.55
2019-05-20T18:46:27.146Z,1000.57
2019-05-20T18:47:27.173Z,1000.51
2019-05-20T18:48:27.269Z,1000.56
2019-05-20T18:49:27.227Z,1000.52
2019-05-20T18:50:27.253Z,1000.54
2019-05-20T18:51:27.305Z,1000.51
2019-05-20T18:52:27.308Z,1000.53
2019-05-20T18:53:27.338Z,1000.57
2019-05-20T18:54:27.367Z,1000.54
2019-05-20T18:55:27.451Z,1000.55
2019-05-20T18:56:27.420Z,1000.57
2019-05-20T18:57:27.449Z,1000.56
2019-05-20T18:58:27.474Z,1000.53
2019-05-20T18:59:27.505Z,1000.56
2019-05-20T19:00:27.532Z,1000.55
2019-05-20T19:01:27.558Z,1000.56
2019-05-20T19:02:27.585Z,1000.58
2019-05-20T19:03:28.599Z,1000.56
2019-05-20T19:04:27.641Z,1000.58
2019-05-20T19:05:27.668Z,1000.56
2019-05-20T19:06:27.700Z,1000.55
2019-05-20T19:07:27.723Z,1000.51
2019-05-20T19:08:27.751Z,1000.53
2019-05-20T19:09:27.830Z,1000.52
2019-05-20T19:10:27.807Z,1000.51
2019-05-20T19:11:27.834Z,1000.52
2019-05-20T19:12:27.868Z,1000.56
2019-05-20T19:13:27.951Z,1000.53
2019-05-20T19:14:27.916Z,1000.51
2019-05-20T19:15:27.946Z,1000.52
2019-05-20T19:16:27.973Z,1000.48
2019-05-20T19:17:28.018Z,1000.48
2019-05-20T19:18:28.030Z,1000.51
2019-05-20T19:19:28.056Z,1000.51
2019-05-20T19:20:28.082Z,1000.47
2019-05-20T19:21:28.109Z,1000.49
2019-05-20T19:22:28.137Z,1000.48
2019-05-20T19:23:28.164Z,1000.50
2019-05-20T19:24:28.192Z,1000.49
2019-05-20T19:25:37.284Z,1000.47
2019-05-20T19:26:28.249Z,1000.48
2019-05-20T19:27:28.274Z,1000.45
2019-05-20T19:28:28.363Z,1000.48
2019-05-20T19:29:28.332Z,1000.42